createdAt,value
2022-11-24T00:00:10.587Z,16.25
2022-11-24T00:03:16.617Z,17.45
2022-11-24T00:06:22.752Z,16.45
2022-11-24T00:09:28.417Z,17.20
2022-11-24T00:12:34.098Z,16.75
2022-11-24T00:15:39.270Z,16.27
2022-11-24T00:18:46.412Z,16.85
2022-11-24T00:21:51.851Z,15.90
2022-11-24T00:24:57.162Z,15.93
2022-11-24T00:28:02.528Z,14.85
2022-11-24T00:31:21.784Z,14.90
2022-11-24T00:34:27.057Z,15.23
2022-11-24T00:37:32.444Z,15.07
2022-11-24T00:40:38.076Z,15.75
2022-11-24T00:43:43.403Z,16.50
2022-11-24T00:46:48.948Z,16.58
2022-11-24T00:49:54.753Z,17.75
2022-11-24T00:53:00.096Z,16.75
2022-11-24T00:56:06.858Z,17.95
2022-11-24T00:59:12.240Z,20.17
2022-11-24T01:02:17.456Z,19.77
2022-11-24T01:05:22.497Z,19.60
2022-11-24T01:08:27.813Z,21.33
2022-11-24T01:11:54.607Z,21.00
2022-11-24T01:15:00.150Z,20.60
2022-11-24T01:18:06.332Z,19.73
2022-11-24T01:21:12.277Z,20.17
2022-11-24T01:24:17.514Z,18.75
2022-11-24T01:27:23.209Z,18.50
2022-11-24T01:30:28.319Z,20.58
2022-11-24T01:33:35.567Z,18.50
2022-11-24T01:36:40.943Z,17.45
2022-11-24T01:39:46.585Z,18.83
2022-11-24T01:42:53.619Z,17.83
2022-11-24T01:46:09.781Z,18.55
2022-11-24T01:49:32.034Z,16.63
2022-11-24T01:52:49.596Z,16.35
2022-11-24T01:55:55.225Z,15.85
2022-11-24T01:59:05.436Z,15.23
2022-11-24T02:02:12.255Z,16.95
2022-11-24T02:05:33.962Z,17.35
2022-11-24T02:08:43.085Z,16.00
2022-11-24T02:11:48.619Z,16.20
2022-11-24T02:14:55.460Z,16.92
2022-11-24T02:18:01.074Z,22.35
2022-11-24T02:21:07.960Z,16.40
2022-11-24T02:24:41.336Z,14.75
2022-11-24T02:27:52.217Z,15.32
2022-11-24T02:31:01.370Z,15.95
2022-11-24T02:34:06.946Z,13.45
2022-11-24T02:37:12.262Z,15.23
2022-11-24T02:40:25.505Z,15.32
2022-11-24T02:43:35.376Z,15.18
2022-11-24T02:46:40.712Z,13.80
2022-11-24T02:49:46.004Z,15.85
2022-11-24T02:52:51.529Z,15.05
2022-11-24T02:55:57.165Z,15.48
2022-11-24T02:59:02.536Z,14.25
2022-11-24T03:02:07.901Z,14.68
2022-11-24T03:05:13.848Z,13.60
2022-11-24T03:08:19.533Z,15.13
2022-11-24T03:11:24.742Z,15.48
2022-11-24T03:14:30.104Z,14.15
2022-11-24T03:17:35.597Z,12.95
2022-11-24T03:20:41.712Z,14.20
2022-11-24T03:23:47.503Z,13.95
2022-11-24T03:26:53.001Z,16.35
2022-11-24T03:29:58.564Z,13.85
2022-11-24T03:33:05.337Z,15.57
2022-11-24T03:36:10.863Z,15.95
2022-11-24T06:56:41.686Z,16.13
2022-11-24T06:59:47.349Z,15.18
2022-11-24T07:02:52.657Z,15.70
2022-11-24T07:05:59.790Z,15.50
2022-11-24T07:57:04.370Z,19.15
2022-11-24T08:00:12.329Z,20.15
2022-11-24T08:03:17.387Z,18.08
2022-11-24T08:06:27.212Z,17.98
2022-11-24T08:09:34.545Z,15.13
2022-11-24T08:12:41.104Z,15.98
2022-11-24T08:15:47.304Z,15.55
2022-11-24T08:18:54.341Z,16.15
2022-11-24T08:21:59.888Z,14.98
2022-11-24T08:25:05.636Z,15.27
2022-11-24T08:28:11.337Z,14.93
2022-11-24T08:31:19.502Z,15.57
2022-11-24T08:34:28.318Z,13.55
2022-11-24T08:37:33.876Z,14.05
2022-11-24T08:40:39.206Z,16.42
2022-11-24T08:43:45.024Z,14.82
2022-11-24T08:46:50.736Z,14.52
2022-11-24T08:49:56.309Z,12.73
2022-11-24T08:53:01.558Z,13.20
2022-11-24T08:56:08.792Z,12.50
2022-11-24T08:59:15.283Z,13.20
2022-11-24T09:02:20.747Z,14.48
2022-11-24T09:05:50.707Z,14.20
2022-11-24T09:08:56.198Z,11.73
2022-11-24T09:12:01.545Z,11.57
2022-11-24T09:15:08.295Z,12.50
2022-11-24T09:18:14.037Z,10.68
2022-11-24T09:21:21.521Z,11.68
2022-11-24T09:24:28.316Z,11.88
2022-11-24T09:27:34.512Z,13.25
2022-11-24T09:30:40.276Z,11.45
2022-11-24T09:33:46.945Z,12.73
2022-11-24T09:36:52.387Z,11.55
2022-11-24T09:39:57.834Z,11.65
2022-11-24T09:43:17.927Z,13.40
2022-11-24T09:46:59.221Z,14.43
2022-11-24T09:50:24.476Z,13.93
2022-11-24T09:53:47.979Z,16.10
2022-11-24T09:56:54.016Z,14.48
2022-11-24T10:00:04.999Z,14.88
2022-11-24T10:03:25.302Z,14.43
2022-11-24T10:06:40.161Z,15.82
2022-11-24T10:10:17.420Z,15.23
2022-11-24T10:13:58.887Z,15.20
2022-11-24T10:17:39.173Z,15.57
2022-11-24T10:21:15.268Z,15.70
2022-11-24T10:24:28.169Z,16.20
2022-11-24T10:27:46.554Z,15.48
2022-11-24T10:31:18.028Z,14.73
2022-11-24T10:34:41.837Z,15.45
2022-11-24T10:38:21.746Z,15.20
2022-11-24T10:42:01.081Z,16.10
2022-11-24T10:45:25.265Z,15.13
2022-11-24T10:48:40.187Z,15.70
2022-11-24T10:51:57.830Z,16.48
2022-11-24T10:55:05.637Z,18.00
2022-11-24T10:58:16.766Z,17.55
2022-11-24T11:01:32.450Z,17.48
2022-11-24T11:04:38.027Z,16.50
2022-11-24T11:07:43.673Z,16.38
2022-11-24T11:10:51.752Z,16.80
2022-11-24T11:14:04.599Z,17.15
2022-11-24T11:17:36.945Z,17.00
2022-11-24T11:20:50.981Z,19.15
2022-11-24T11:23:58.030Z,17.70
2022-11-24T11:27:16.769Z,20.00
2022-11-24T11:34:10.692Z,17.40
2022-11-24T11:37:24.677Z,16.55
2022-11-24T11:40:31.879Z,16.88
2022-11-24T11:43:41.341Z,16.83
2022-11-24T11:46:47.818Z,17.60
2022-11-24T11:49:53.760Z,17.73
2022-11-24T11:53:28.183Z,18.35
2022-11-24T11:57:39.473Z,15.98
2022-11-24T12:01:15.565Z,16.83
2022-11-24T12:04:23.675Z,16.70
2022-11-24T12:07:53.134Z,17.08
2022-11-24T12:11:35.963Z,15.68
2022-11-24T12:22:16.900Z,16.83
2022-11-24T12:25:35.224Z,16.35
2022-11-24T12:29:03.955Z,15.40
2022-11-24T12:32:41.392Z,16.02
2022-11-24T12:35:53.189Z,15.88
2022-11-24T12:39:15.315Z,17.07
2022-11-24T12:42:48.054Z,16.25
2022-11-24T12:46:11.152Z,17.20
2022-11-24T12:49:54.510Z,16.67
2022-11-24T12:53:13.667Z,16.90
2022-11-24T12:56:28.539Z,16.48
2022-11-24T12:59:57.121Z,17.13
2022-11-24T13:03:46.223Z,16.23
2022-11-24T13:07:12.757Z,15.93
2022-11-24T13:10:55.969Z,16.80
2022-11-24T13:14:19.503Z,14.43
2022-11-24T13:18:06.846Z,18.45
2022-11-24T13:21:48.418Z,14.63
2022-11-24T13:25:33.979Z,14.95
2022-11-24T13:29:18.325Z,13.88
2022-11-24T13:33:04.933Z,14.77
2022-11-24T13:36:25.457Z,12.35
2022-11-24T13:40:09.707Z,14.10
2022-11-24T13:43:16.396Z,13.70
2022-11-24T13:47:05.649Z,13.82
2022-11-24T13:50:24.686Z,14.38
2022-11-24T13:53:48.549Z,13.82
2022-11-24T13:57:35.700Z,15.63
2022-11-24T14:01:18.327Z,14.68
2022-11-24T14:07:59.469Z,14.15
2022-11-24T14:11:15.247Z,14.15
2022-11-24T14:14:40.348Z,14.23
2022-11-24T14:17:46.422Z,14.55
2022-11-24T14:21:10.788Z,14.23
2022-11-24T14:24:33.439Z,13.80
2022-11-24T14:27:59.270Z,14.25
2022-11-24T14:31:09.897Z,13.75
2022-11-24T14:34:35.979Z,14.55
2022-11-24T14:37:41.984Z,15.20
2022-11-24T14:41:09.607Z,16.30
2022-11-24T14:44:22.592Z,15.60
2022-11-24T14:47:50.709Z,14.87
2022-11-24T14:51:08.353Z,15.43
2022-11-24T14:54:35.454Z,15.40
2022-11-24T14:57:42.297Z,17.17
2022-11-24T15:01:25.885Z,14.35
2022-11-24T15:05:01.581Z,14.38
2022-11-24T15:08:21.392Z,15.32
2022-11-24T15:11:31.582Z,14.18
2022-11-24T15:15:07.505Z,13.85
2022-11-24T15:18:49.587Z,14.45
2022-11-24T15:22:13.584Z,15.25
2022-11-24T15:25:31.867Z,13.38
2022-11-24T15:28:55.613Z,13.80
2022-11-24T15:32:00.876Z,13.93
2022-11-24T15:35:28.986Z,14.27
2022-11-24T15:38:34.468Z,14.82
2022-11-24T15:41:59.659Z,14.15
2022-11-24T15:45:05.931Z,15.40
2022-11-24T15:48:29.805Z,15.38
2022-11-24T15:51:36.538Z,16.58
2022-11-24T15:54:42.120Z,15.60
2022-11-24T15:57:49.317Z,17.92
2022-11-24T16:00:54.930Z,20.05
2022-11-24T16:04:01.917Z,19.38
2022-11-24T16:07:12.150Z,18.95
2022-11-24T16:10:26.773Z,17.92
2022-11-24T16:13:32.543Z,17.80
2022-11-24T16:16:37.957Z,19.35
2022-11-24T16:19:44.249Z,16.90
2022-11-24T16:22:49.884Z,18.15
2022-11-24T16:25:55.011Z,17.17
2022-11-24T16:29:00.475Z,17.05
2022-11-24T16:32:06.573Z,18.13
2022-11-24T16:35:25.950Z,18.77
2022-11-24T16:38:44.921Z,17.83
2022-11-24T16:42:01.970Z,18.98
2022-11-24T16:45:13.585Z,19.75
2022-11-24T16:48:18.800Z,20.98
2022-11-24T16:51:28.785Z,23.55
2022-11-24T16:54:39.558Z,21.23
2022-11-24T16:57:45.914Z,22.83
2022-11-24T17:00:52.213Z,22.02
2022-11-24T17:03:58.216Z,22.67
2022-11-24T17:07:03.865Z,22.10
2022-11-24T17:10:09.804Z,24.33
2022-11-24T17:13:15.811Z,23.70
2022-11-24T17:16:23.737Z,23.58
2022-11-24T17:19:32.024Z,22.30
2022-11-24T17:22:38.246Z,23.35
2022-11-24T17:25:44.069Z,23.05
2022-11-24T17:28:50.586Z,23.50
2022-11-24T17:31:57.027Z,23.27
2022-11-24T17:35:03.074Z,24.23
2022-11-24T17:38:09.314Z,22.42
2022-11-24T17:41:16.215Z,26.92
2022-11-24T17:44:22.303Z,25.45
2022-11-24T17:47:30.607Z,31.27
2022-11-24T17:50:37.311Z,33.78
2022-11-24T17:53:46.455Z,35.45
2022-11-24T17:56:52.663Z,35.90
2022-11-24T17:59:59.185Z,36.03
2022-11-24T18:03:05.856Z,36.25
2022-11-24T18:06:15.209Z,37.03
2022-11-24T18:09:22.451Z,36.03
2022-11-24T18:12:28.644Z,31.13
2022-11-24T18:15:35.472Z,30.55
2022-11-24T18:18:45.957Z,34.22
2022-11-24T18:21:55.167Z,35.35
2022-11-24T18:25:01.646Z,33.47
2022-11-24T18:28:08.296Z,32.72
2022-11-24T18:31:18.798Z,31.60
2022-11-24T18:34:25.477Z,30.50
2022-11-24T18:37:33.679Z,30.80
2022-11-24T18:40:41.001Z,30.08
2022-11-24T18:43:47.388Z,32.38
2022-11-24T18:46:54.133Z,31.25
2022-11-24T18:50:00.720Z,30.08
2022-11-24T18:53:06.966Z,33.42
2022-11-24T18:56:17.442Z,38.97
2022-11-24T18:59:23.029Z,42.00
2022-11-24T19:02:29.272Z,39.60
2022-11-24T19:05:35.206Z,34.67
2022-11-24T19:08:41.055Z,33.17
2022-11-24T19:11:47.552Z,36.08
2022-11-24T19:14:54.936Z,34.97
2022-11-24T19:18:00.607Z,36.72
2022-11-24T19:21:06.976Z,35.58
2022-11-24T19:24:13.473Z,39.50
2022-11-24T19:27:21.422Z,39.42
2022-11-24T19:30:27.142Z,34.40
2022-11-24T19:33:33.683Z,28.92
2022-11-24T19:36:40.847Z,35.55
2022-11-24T19:39:47.020Z,34.13
2022-11-24T19:42:52.590Z,29.38
2022-11-24T19:46:06.608Z,32.00
2022-11-24T19:49:12.054Z,29.70
2022-11-24T19:52:17.551Z,30.17
2022-11-24T19:55:22.984Z,29.05
2022-11-24T19:58:30.853Z,29.75
2022-11-24T20:01:39.878Z,25.75
2022-11-24T20:04:45.965Z,24.77
2022-11-24T20:07:51.112Z,23.02
2022-11-24T20:11:05.804Z,21.58
2022-11-24T20:14:16.570Z,24.30
2022-11-24T20:17:23.302Z,26.75
2022-11-24T20:20:28.682Z,29.27
2022-11-24T20:23:34.440Z,29.88
2022-11-24T20:26:44.038Z,37.95
2022-11-24T20:29:49.327Z,35.55
2022-11-24T20:32:54.919Z,31.13
2022-11-24T20:36:18.967Z,29.60
2022-11-24T20:39:27.537Z,30.02
2022-11-24T20:42:33.246Z,26.90
2022-11-24T20:45:38.936Z,30.15
2022-11-24T20:48:45.344Z,31.30
2022-11-24T20:51:54.660Z,32.67
2022-11-24T20:55:04.242Z,32.42
2022-11-24T20:58:09.704Z,33.08
2022-11-24T21:01:21.328Z,33.35
2022-11-24T21:04:27.784Z,30.77
2022-11-24T21:07:33.389Z,29.98
2022-11-24T21:10:39.010Z,31.30
2022-11-24T21:13:47.980Z,31.63
2022-11-24T21:16:54.098Z,31.48
2022-11-24T21:20:01.295Z,31.30
2022-11-24T21:23:07.604Z,32.28
2022-11-24T21:26:16.949Z,29.00
2022-11-24T21:29:25.769Z,31.45
2022-11-24T21:32:32.544Z,29.38
2022-11-24T21:35:38.354Z,33.42
2022-11-24T21:38:44.751Z,32.92
2022-11-24T21:41:50.044Z,31.30
2022-11-24T21:44:55.908Z,29.42
2022-11-24T21:48:01.665Z,30.20
2022-11-24T21:51:10.851Z,31.42
2022-11-24T21:54:16.029Z,30.88
2022-11-24T21:57:23.511Z,30.45
2022-11-24T22:00:29.446Z,30.85
2022-11-24T22:03:35.608Z,28.10
2022-11-24T22:06:40.938Z,31.92
2022-11-24T22:09:47.062Z,30.65
2022-11-24T22:12:52.501Z,29.98
2022-11-24T22:16:04.374Z,28.67
2022-11-24T22:19:11.901Z,27.38
2022-11-24T22:22:17.644Z,27.73
2022-11-24T22:25:23.426Z,29.92
2022-11-24T22:28:32.642Z,28.80
2022-11-24T22:31:38.202Z,24.92
2022-11-24T22:34:44.005Z,27.02
2022-11-24T22:37:49.763Z,26.48
2022-11-24T22:41:00.867Z,25.60
2022-11-24T22:44:07.239Z,24.35
2022-11-24T22:47:12.697Z,23.50
2022-11-24T22:50:18.331Z,27.10
2022-11-24T22:53:23.802Z,27.10
2022-11-24T22:56:32.609Z,27.00
2022-11-24T22:59:38.324Z,26.45
2022-11-24T23:02:43.926Z,25.80
2022-11-24T23:05:49.696Z,23.33
2022-11-24T23:08:57.812Z,22.88
2022-11-24T23:12:03.162Z,22.23
2022-11-24T23:15:09.391Z,21.85
2022-11-24T23:18:15.321Z,21.95
2022-11-24T23:21:22.482Z,22.73
2022-11-24T23:24:28.387Z,20.77
2022-11-24T23:27:33.995Z,22.20
2022-11-24T23:30:39.513Z,22.75
2022-11-24T23:33:46.375Z,22.15
2022-11-24T23:36:51.911Z,20.60
2022-11-24T23:39:57.421Z,22.02
2022-11-24T23:43:02.763Z,20.98
2022-11-24T23:46:17.168Z,21.80
2022-11-24T23:49:22.749Z,21.95
2022-11-24T23:52:30.723Z,21.48
2022-11-24T23:55:36.448Z,22.08
2022-11-24T23:58:42.775Z,20.92
